SWA4459 KMKE-KSTL
Flight info
| Callsign | SWA4459 |
|---|---|
| Flight time | 0h 54m |
| Altitude | 36000 |
| Route | ACCRA5 ACCRA RBS AARCH2 |
| Aircraft | B737/M-SDE2E3FGHIRWXY/LB1 |
Departure
| Time | 2026-05-08 00:07 |
|---|---|
| Airport | General Mitchell International Airport (KMKE) |
Arrival
| Time | 2026-05-08 01:02 |
|---|---|
| Airport | St. Louis Lambert International Airport (KSTL) |
| Time | Latitude | Longitude | Altitude | Speed | Heading |
|---|---|---|---|---|---|
| 2026-05-07 23:39 | 42.95106 | -87.90030 | 687 ft | 0 kts | 229° |
| 2026-05-07 23:57 | 42.95114 | -87.90018 | 679 ft | 3 kts | 229° |
| 2026-05-07 23:58 | 42.95127 | -87.89997 | 683 ft | 3 kts | 229° |
| 2026-05-07 23:58 | 42.95141 | -87.89978 | 683 ft | 3 kts | 206° |
| 2026-05-07 23:58 | 42.95155 | -87.89973 | 681 ft | 3 kts | 147° |
| 2026-05-07 23:58 | 42.95163 | -87.89982 | 683 ft | 2 kts | 132° |
| 2026-05-07 23:59 | 42.95172 | -87.89995 | 682 ft | 1 kts | 132° |
| 2026-05-07 23:59 | 42.95172 | -87.89996 | 682 ft | 0 kts | 132° |
| 2026-05-08 00:02 | 42.95172 | -87.89995 | 687 ft | 1 kts | 132° |
| 2026-05-08 00:02 | 42.95149 | -87.89955 | 682 ft | 6 kts | 125° |
| 2026-05-08 00:02 | 42.95118 | -87.89910 | 684 ft | 8 kts | 135° |
| 2026-05-08 00:03 | 42.95054 | -87.89831 | 684 ft | 14 kts | 147° |
| 2026-05-08 00:03 | 42.94980 | -87.89758 | 683 ft | 13 kts | 117° |
| 2026-05-08 00:03 | 42.94974 | -87.89639 | 687 ft | 13 kts | 81° |
| 2026-05-08 00:03 | 42.95038 | -87.89576 | 684 ft | 12 kts | 7° |
| 2026-05-08 00:04 | 42.95123 | -87.89561 | 687 ft | 12 kts | 7° |
| 2026-05-08 00:04 | 42.95205 | -87.89548 | 681 ft | 12 kts | 6° |
| 2026-05-08 00:04 | 42.95298 | -87.89531 | 684 ft | 16 kts | 7° |
| 2026-05-08 00:04 | 42.95419 | -87.89512 | 687 ft | 18 kts | 6° |
| 2026-05-08 00:05 | 42.95538 | -87.89492 | 681 ft | 17 kts | 8° |
| 2026-05-08 00:05 | 42.95653 | -87.89472 | 683 ft | 16 kts | 7° |
| 2026-05-08 00:05 | 42.95725 | -87.89452 | 684 ft | 5 kts | 31° |
| 2026-05-08 00:05 | 42.95743 | -87.89417 | 685 ft | 5 kts | 73° |
| 2026-05-08 00:06 | 42.95744 | -87.89353 | 687 ft | 7 kts | 92° |
| 2026-05-08 00:06 | 42.95710 | -87.89310 | 681 ft | 9 kts | 181° |
| 2026-05-08 00:06 | 42.95564 | -87.89335 | 683 ft | 51 kts | 187° |
| 2026-05-08 00:06 | 42.94948 | -87.89442 | 685 ft | 124 kts | 187° |
| 2026-05-08 00:07 | 42.93902 | -87.89630 | 798 ft | 170 kts | 185° |
| 2026-05-08 00:07 | 42.92768 | -87.89834 | 1779 ft | 160 kts | 185° |
| 2026-05-08 00:07 | 42.91609 | -87.90002 | 2356 ft | 181 kts | 186° |
| 2026-05-08 00:07 | 42.90278 | -87.90169 | 2964 ft | 200 kts | 189° |
| 2026-05-08 00:08 | 42.88858 | -87.90311 | 3726 ft | 211 kts | 187° |
| 2026-05-08 00:08 | 42.87374 | -87.90823 | 4029 ft | 231 kts | 219° |
| 2026-05-08 00:08 | 42.86249 | -87.92396 | 4762 ft | 237 kts | 232° |
| 2026-05-08 00:08 | 42.85101 | -87.94143 | 5513 ft | 251 kts | 231° |
| 2026-05-08 00:09 | 42.83911 | -87.95860 | 6607 ft | 251 kts | 230° |
| 2026-05-08 00:09 | 42.82687 | -87.97553 | 7713 ft | 250 kts | 229° |
| 2026-05-08 00:09 | 42.81443 | -87.99224 | 8766 ft | 252 kts | 229° |
| 2026-05-08 00:09 | 42.80181 | -88.00887 | 9836 ft | 252 kts | 229° |
| 2026-05-08 00:10 | 42.78892 | -88.02567 | 10559 ft | 265 kts | 229° |
| 2026-05-08 00:10 | 42.77488 | -88.04390 | 10847 ft | 290 kts | 228° |
| 2026-05-08 00:10 | 42.75988 | -88.06315 | 11531 ft | 300 kts | 229° |
| 2026-05-08 00:10 | 42.74467 | -88.08253 | 12185 ft | 311 kts | 229° |
| 2026-05-08 00:11 | 42.72869 | -88.10287 | 12389 ft | 315 kts | 228° |
| 2026-05-08 00:11 | 42.71258 | -88.12329 | 13397 ft | 315 kts | 228° |
| 2026-05-08 00:11 | 42.69400 | -88.14010 | 14300 ft | 331 kts | 210° |
| 2026-05-08 00:11 | 42.67103 | -88.14747 | 15140 ft | 351 kts | 190° |
| 2026-05-08 00:12 | 42.64653 | -88.14784 | 15958 ft | 360 kts | 186° |
| 2026-05-08 00:12 | 42.62115 | -88.14711 | 16759 ft | 367 kts | 186° |
| 2026-05-08 00:12 | 42.59539 | -88.14647 | 17554 ft | 373 kts | 186° |
| 2026-05-08 00:12 | 42.56917 | -88.14615 | 18334 ft | 379 kts | 187° |
| 2026-05-08 00:13 | 42.54260 | -88.14593 | 19061 ft | 384 kts | 186° |
| 2026-05-08 00:13 | 42.51570 | -88.14505 | 19823 ft | 389 kts | 186° |
| 2026-05-08 00:13 | 42.48886 | -88.14382 | 20560 ft | 393 kts | 186° |
| 2026-05-08 00:13 | 42.46125 | -88.14257 | 21289 ft | 398 kts | 186° |
| 2026-05-08 00:14 | 42.43338 | -88.14140 | 22007 ft | 402 kts | 186° |
| 2026-05-08 00:14 | 42.40509 | -88.13960 | 22699 ft | 412 kts | 181° |
| 2026-05-08 00:14 | 42.37675 | -88.13286 | 23342 ft | 422 kts | 175° |
| 2026-05-08 00:14 | 42.34781 | -88.12393 | 23902 ft | 428 kts | 175° |
| 2026-05-08 00:15 | 42.31860 | -88.11527 | 24449 ft | 431 kts | 176° |
| 2026-05-08 00:15 | 42.28895 | -88.10711 | 24997 ft | 435 kts | 177° |
| 2026-05-08 00:15 | 42.25942 | -88.09959 | 25532 ft | 439 kts | 178° |
| 2026-05-08 00:15 | 42.22919 | -88.09214 | 26071 ft | 443 kts | 178° |
| 2026-05-08 00:16 | 42.19885 | -88.08470 | 26733 ft | 443 kts | 178° |
| 2026-05-08 00:16 | 42.16832 | -88.07713 | 27223 ft | 448 kts | 179° |
| 2026-05-08 00:16 | 42.13725 | -88.06941 | 27561 ft | 457 kts | 179° |
| 2026-05-08 00:16 | 42.10577 | -88.06153 | 28019 ft | 461 kts | 179° |
| 2026-05-08 00:17 | 42.07444 | -88.05366 | 28546 ft | 464 kts | 179° |
| 2026-05-08 00:17 | 42.04253 | -88.04570 | 29025 ft | 467 kts | 179° |
| 2026-05-08 00:17 | 42.01036 | -88.03784 | 29474 ft | 471 kts | 179° |
| 2026-05-08 00:17 | 41.97784 | -88.02994 | 29901 ft | 476 kts | 179° |
| 2026-05-08 00:18 | 41.94548 | -88.02207 | 30238 ft | 479 kts | 180° |
| 2026-05-08 00:18 | 41.91261 | -88.01510 | 30719 ft | 472 kts | 184° |
| 2026-05-08 00:18 | 41.88005 | -88.01109 | 31341 ft | 462 kts | 189° |
| 2026-05-08 00:18 | 41.84859 | -88.01250 | 31954 ft | 447 kts | 196° |
| 2026-05-08 00:19 | 41.81779 | -88.01626 | 32524 ft | 442 kts | 198° |
| 2026-05-08 00:19 | 41.78719 | -88.02059 | 33049 ft | 440 kts | 198° |
| 2026-05-08 00:19 | 41.75712 | -88.02492 | 33385 ft | 441 kts | 198° |
| 2026-05-08 00:19 | 41.72631 | -88.02925 | 33525 ft | 448 kts | 198° |
| 2026-05-08 00:20 | 41.66312 | -88.03754 | 33732 ft | 462 kts | 197° |
| 2026-05-08 00:20 | 41.63095 | -88.04148 | 33944 ft | 465 kts | 197° |
| 2026-05-08 00:20 | 41.59855 | -88.04530 | 34235 ft | 465 kts | 197° |
| 2026-05-08 00:21 | 41.56673 | -88.04898 | 34559 ft | 464 kts | 197° |
| 2026-05-08 00:21 | 41.53449 | -88.05271 | 34836 ft | 463 kts | 197° |
| 2026-05-08 00:21 | 41.50244 | -88.05643 | 35228 ft | 460 kts | 197° |
| 2026-05-08 00:21 | 41.47057 | -88.06016 | 35541 ft | 460 kts | 197° |
| 2026-05-08 00:22 | 41.43856 | -88.06396 | 35742 ft | 462 kts | 197° |
| 2026-05-08 00:22 | 41.40646 | -88.06779 | 35947 ft | 463 kts | 196° |
| 2026-05-08 00:22 | 41.34215 | -88.07547 | 35951 ft | 466 kts | 196° |
| 2026-05-08 00:23 | 41.27780 | -88.08295 | 35944 ft | 457 kts | 197° |
| 2026-05-08 00:23 | 41.21495 | -88.09029 | 35956 ft | 455 kts | 197° |
| 2026-05-08 00:24 | 41.15188 | -88.09775 | 35954 ft | 454 kts | 197° |
| 2026-05-08 00:24 | 41.08888 | -88.10519 | 35934 ft | 454 kts | 197° |
| 2026-05-08 00:25 | 41.02582 | -88.11259 | 35961 ft | 454 kts | 197° |
| 2026-05-08 00:25 | 40.96304 | -88.11994 | 35958 ft | 455 kts | 197° |
| 2026-05-08 00:26 | 40.89970 | -88.12733 | 35972 ft | 456 kts | 197° |
| 2026-05-08 00:26 | 40.83639 | -88.13469 | 35968 ft | 456 kts | 196° |
| 2026-05-08 00:27 | 40.77332 | -88.14203 | 35974 ft | 456 kts | 196° |
| 2026-05-08 00:27 | 40.70991 | -88.14939 | 35977 ft | 457 kts | 196° |
| 2026-05-08 00:28 | 40.64688 | -88.15671 | 35977 ft | 457 kts | 196° |
| 2026-05-08 00:28 | 40.58344 | -88.16440 | 35975 ft | 449 kts | 201° |
| 2026-05-08 00:29 | 40.55479 | -88.17515 | 35969 ft | 415 kts | 212° |
| 2026-05-08 00:29 | 40.52790 | -88.18829 | 35584 ft | 408 kts | 212° |
| 2026-05-08 00:29 | 40.50149 | -88.20127 | 35180 ft | 403 kts | 212° |
| 2026-05-08 00:29 | 40.47566 | -88.21389 | 34780 ft | 399 kts | 212° |
| 2026-05-08 00:30 | 40.44967 | -88.22646 | 34322 ft | 395 kts | 212° |
| 2026-05-08 00:30 | 40.42392 | -88.23879 | 33918 ft | 392 kts | 212° |
| 2026-05-08 00:30 | 40.39832 | -88.25098 | 33430 ft | 388 kts | 212° |
| 2026-05-08 00:30 | 40.38150 | -88.25896 | 33128 ft | 386 kts | 212° |
| 2026-05-08 00:31 | 40.35633 | -88.27087 | 32700 ft | 382 kts | 212° |
| 2026-05-08 00:31 | 40.32358 | -88.28631 | 32143 ft | 373 kts | 212° |
| 2026-05-08 00:31 | 40.29941 | -88.29767 | 31746 ft | 365 kts | 212° |
| 2026-05-08 00:31 | 40.28337 | -88.30522 | 31474 ft | 361 kts | 212° |
| 2026-05-08 00:32 | 40.25991 | -88.31627 | 31089 ft | 354 kts | 212° |
| 2026-05-08 00:32 | 40.23721 | -88.32697 | 30679 ft | 348 kts | 212° |
| 2026-05-08 00:32 | 40.21451 | -88.33768 | 30337 ft | 343 kts | 213° |
| 2026-05-08 00:32 | 40.19213 | -88.34825 | 29971 ft | 341 kts | 213° |
| 2026-05-08 00:33 | 40.16956 | -88.35898 | 29562 ft | 349 kts | 212° |
| 2026-05-08 00:33 | 40.14648 | -88.36999 | 29146 ft | 363 kts | 212° |
| 2026-05-08 00:33 | 40.12258 | -88.38121 | 28680 ft | 362 kts | 212° |
| 2026-05-08 00:33 | 40.09909 | -88.39208 | 28268 ft | 353 kts | 212° |
| 2026-05-08 00:34 | 40.07618 | -88.40272 | 28002 ft | 344 kts | 212° |
| 2026-05-08 00:34 | 40.05397 | -88.41309 | 28006 ft | 342 kts | 212° |
| 2026-05-08 00:34 | 40.03174 | -88.42349 | 27982 ft | 334 kts | 212° |
| 2026-05-08 00:34 | 40.01016 | -88.43353 | 27933 ft | 321 kts | 213° |
| 2026-05-08 00:35 | 39.98961 | -88.44307 | 27912 ft | 307 kts | 213° |
| 2026-05-08 00:35 | 39.96959 | -88.45246 | 27350 ft | 310 kts | 213° |
| 2026-05-08 00:35 | 39.94852 | -88.46256 | 26157 ft | 335 kts | 212° |
| 2026-05-08 00:35 | 39.92675 | -88.47269 | 26057 ft | 329 kts | 212° |
| 2026-05-08 00:36 | 39.90460 | -88.48301 | 25865 ft | 348 kts | 211° |
| 2026-05-08 00:36 | 39.88118 | -88.49402 | 25585 ft | 375 kts | 211° |
| 2026-05-08 00:36 | 39.85584 | -88.50583 | 25292 ft | 391 kts | 210° |
| 2026-05-08 00:36 | 39.83013 | -88.51758 | 24973 ft | 391 kts | 210° |
| 2026-05-08 00:37 | 39.80445 | -88.52936 | 24661 ft | 391 kts | 210° |
| 2026-05-08 00:37 | 39.77873 | -88.54123 | 24334 ft | 390 kts | 210° |
| 2026-05-08 00:37 | 39.75356 | -88.55288 | 24073 ft | 387 kts | 210° |
| 2026-05-08 00:38 | 39.70303 | -88.57631 | 23999 ft | 385 kts | 210° |
| 2026-05-08 00:38 | 39.67779 | -88.58804 | 23996 ft | 385 kts | 210° |
| 2026-05-08 00:38 | 39.65249 | -88.59977 | 23989 ft | 385 kts | 210° |
| 2026-05-08 00:38 | 39.62718 | -88.61147 | 23989 ft | 385 kts | 210° |
| 2026-05-08 00:39 | 39.60195 | -88.62325 | 23983 ft | 383 kts | 212° |
| 2026-05-08 00:39 | 39.57973 | -88.63968 | 23990 ft | 363 kts | 228° |
| 2026-05-08 00:39 | 39.56037 | -88.66046 | 23963 ft | 360 kts | 229° |
| 2026-05-08 00:39 | 39.54123 | -88.68155 | 23986 ft | 359 kts | 230° |
| 2026-05-08 00:40 | 39.52219 | -88.70256 | 23983 ft | 359 kts | 229° |
| 2026-05-08 00:40 | 39.50312 | -88.72348 | 23977 ft | 358 kts | 229° |
| 2026-05-08 00:40 | 39.48427 | -88.74394 | 23771 ft | 350 kts | 229° |
| 2026-05-08 00:40 | 39.46577 | -88.76391 | 23525 ft | 341 kts | 229° |
| 2026-05-08 00:41 | 39.44800 | -88.78303 | 23106 ft | 334 kts | 229° |
| 2026-05-08 00:41 | 39.42975 | -88.80280 | 21984 ft | 346 kts | 229° |
| 2026-05-08 00:41 | 39.41107 | -88.82303 | 21150 ft | 352 kts | 229° |
| 2026-05-08 00:41 | 39.39224 | -88.84328 | 20553 ft | 350 kts | 229° |
| 2026-05-08 00:42 | 39.37382 | -88.86302 | 20014 ft | 346 kts | 228° |
| 2026-05-08 00:42 | 39.35532 | -88.88284 | 19439 ft | 345 kts | 229° |
| 2026-05-08 00:42 | 39.33685 | -88.90266 | 18846 ft | 343 kts | 228° |
| 2026-05-08 00:42 | 39.31853 | -88.92230 | 18318 ft | 341 kts | 228° |
| 2026-05-08 00:43 | 39.30024 | -88.94188 | 17787 ft | 338 kts | 228° |
| 2026-05-08 00:43 | 39.28225 | -88.96110 | 17499 ft | 333 kts | 228° |
| 2026-05-08 00:43 | 39.26443 | -88.98015 | 17202 ft | 331 kts | 228° |
| 2026-05-08 00:43 | 39.24681 | -88.99901 | 16944 ft | 335 kts | 228° |
| 2026-05-08 00:44 | 39.22873 | -89.01839 | 16684 ft | 339 kts | 227° |
| 2026-05-08 00:44 | 39.21054 | -89.03782 | 16384 ft | 338 kts | 227° |
| 2026-05-08 00:44 | 39.19240 | -89.05717 | 16122 ft | 336 kts | 227° |
| 2026-05-08 00:44 | 39.17463 | -89.07612 | 15867 ft | 335 kts | 227° |
| 2026-05-08 00:45 | 39.15667 | -89.09529 | 15604 ft | 334 kts | 227° |
| 2026-05-08 00:45 | 39.13871 | -89.11443 | 15339 ft | 333 kts | 227° |
| 2026-05-08 00:45 | 39.12085 | -89.13344 | 15087 ft | 333 kts | 227° |
| 2026-05-08 00:45 | 39.10354 | -89.15257 | 14812 ft | 327 kts | 234° |
| 2026-05-08 00:46 | 39.09101 | -89.17600 | 14572 ft | 312 kts | 251° |
| 2026-05-08 00:46 | 39.08382 | -89.20203 | 14351 ft | 306 kts | 258° |
| 2026-05-08 00:46 | 39.07795 | -89.22832 | 14110 ft | 305 kts | 259° |
| 2026-05-08 00:46 | 39.07228 | -89.25470 | 13864 ft | 305 kts | 260° |
| 2026-05-08 00:47 | 39.06660 | -89.28104 | 13600 ft | 305 kts | 259° |
| 2026-05-08 00:47 | 39.06087 | -89.30730 | 13341 ft | 305 kts | 259° |
| 2026-05-08 00:47 | 39.05508 | -89.33351 | 13095 ft | 304 kts | 259° |
| 2026-05-08 00:47 | 39.04925 | -89.35967 | 12851 ft | 304 kts | 259° |
| 2026-05-08 00:48 | 39.04348 | -89.38544 | 12614 ft | 304 kts | 258° |
| 2026-05-08 00:48 | 39.03760 | -89.41158 | 12367 ft | 304 kts | 258° |
| 2026-05-08 00:48 | 39.03171 | -89.43773 | 12129 ft | 304 kts | 258° |
| 2026-05-08 00:48 | 39.02580 | -89.46392 | 11897 ft | 304 kts | 258° |
| 2026-05-08 00:49 | 39.01990 | -89.49002 | 11659 ft | 304 kts | 258° |
| 2026-05-08 00:49 | 39.01405 | -89.51587 | 11423 ft | 304 kts | 257° |
| 2026-05-08 00:49 | 39.00811 | -89.54203 | 11179 ft | 303 kts | 257° |
| 2026-05-08 00:49 | 39.00230 | -89.56750 | 10925 ft | 288 kts | 257° |
| 2026-05-08 00:50 | 38.99561 | -89.59106 | 10690 ft | 276 kts | 245° |
| 2026-05-08 00:50 | 38.98403 | -89.61054 | 10493 ft | 272 kts | 231° |
| 2026-05-08 00:50 | 38.97041 | -89.62781 | 10297 ft | 274 kts | 229° |
| 2026-05-08 00:50 | 38.95677 | -89.64458 | 10084 ft | 272 kts | 229° |
| 2026-05-08 00:51 | 38.94332 | -89.66126 | 9862 ft | 265 kts | 229° |
| 2026-05-08 00:51 | 38.93021 | -89.67766 | 9642 ft | 260 kts | 229° |
| 2026-05-08 00:51 | 38.91728 | -89.69394 | 9434 ft | 260 kts | 229° |
| 2026-05-08 00:51 | 38.90453 | -89.71006 | 9223 ft | 261 kts | 229° |
| 2026-05-08 00:52 | 38.89154 | -89.72649 | 9014 ft | 262 kts | 229° |
| 2026-05-08 00:52 | 38.87857 | -89.74289 | 8800 ft | 262 kts | 229° |
| 2026-05-08 00:52 | 38.86557 | -89.75932 | 8596 ft | 261 kts | 229° |
| 2026-05-08 00:52 | 38.85275 | -89.77549 | 8403 ft | 261 kts | 228° |
| 2026-05-08 00:53 | 38.83979 | -89.79183 | 8194 ft | 261 kts | 228° |
| 2026-05-08 00:53 | 38.82686 | -89.80813 | 7989 ft | 260 kts | 228° |
| 2026-05-08 00:53 | 38.81397 | -89.82439 | 7786 ft | 259 kts | 228° |
| 2026-05-08 00:53 | 38.80115 | -89.84056 | 7578 ft | 257 kts | 227° |
| 2026-05-08 00:54 | 38.78860 | -89.85637 | 7384 ft | 255 kts | 227° |
| 2026-05-08 00:54 | 38.77600 | -89.87222 | 7179 ft | 252 kts | 227° |
| 2026-05-08 00:54 | 38.76353 | -89.88790 | 6978 ft | 250 kts | 227° |
| 2026-05-08 00:54 | 38.75112 | -89.90365 | 6718 ft | 251 kts | 227° |
| 2026-05-08 00:55 | 38.73874 | -89.91945 | 6457 ft | 250 kts | 229° |
| 2026-05-08 00:55 | 38.73002 | -89.93810 | 6152 ft | 240 kts | 251° |
| 2026-05-08 00:55 | 38.72510 | -89.95801 | 5967 ft | 227 kts | 252° |
| 2026-05-08 00:55 | 38.72049 | -89.97696 | 5676 ft | 220 kts | 252° |
| 2026-05-08 00:56 | 38.71608 | -89.99527 | 5474 ft | 210 kts | 253° |
| 2026-05-08 00:56 | 38.71184 | -90.01289 | 5285 ft | 204 kts | 252° |
| 2026-05-08 00:56 | 38.70776 | -90.03005 | 5115 ft | 204 kts | 252° |
| 2026-05-08 00:56 | 38.70365 | -90.04758 | 4944 ft | 206 kts | 252° |
| 2026-05-08 00:57 | 38.69951 | -90.06537 | 4772 ft | 209 kts | 252° |
| 2026-05-08 00:57 | 38.69539 | -90.08330 | 4578 ft | 210 kts | 252° |
| 2026-05-08 00:57 | 38.69133 | -90.10119 | 4382 ft | 209 kts | 253° |
| 2026-05-08 00:57 | 38.68731 | -90.11900 | 4198 ft | 208 kts | 253° |
| 2026-05-08 00:58 | 38.68331 | -90.13675 | 4014 ft | 207 kts | 253° |
| 2026-05-08 00:58 | 38.67935 | -90.15433 | 3866 ft | 208 kts | 253° |
| 2026-05-08 00:58 | 38.67538 | -90.17203 | 3697 ft | 205 kts | 252° |
| 2026-05-08 00:58 | 38.67171 | -90.18971 | 3565 ft | 209 kts | 261° |
| 2026-05-08 00:59 | 38.67458 | -90.20770 | 3516 ft | 211 kts | 295° |
| 2026-05-08 00:59 | 38.68204 | -90.22387 | 3491 ft | 212 kts | 297° |
| 2026-05-08 00:59 | 38.68981 | -90.24003 | 3119 ft | 213 kts | 299° |
| 2026-05-08 00:59 | 38.69773 | -90.25575 | 2599 ft | 212 kts | 300° |
| 2026-05-08 01:00 | 38.70548 | -90.27153 | 2092 ft | 203 kts | 296° |
| 2026-05-08 01:00 | 38.71257 | -90.28671 | 1725 ft | 191 kts | 298° |
| 2026-05-08 01:00 | 38.71954 | -90.30060 | 1382 ft | 175 kts | 298° |
| 2026-05-08 01:00 | 38.72552 | -90.31312 | 1083 ft | 160 kts | 298° |
| 2026-05-08 01:01 | 38.73120 | -90.32465 | 903 ft | 145 kts | 301° |
| 2026-05-08 01:01 | 38.73654 | -90.33540 | 731 ft | 144 kts | 299° |
| 2026-05-08 01:01 | 38.74195 | -90.34629 | 629 ft | 139 kts | 298° |
| 2026-05-08 01:01 | 38.74628 | -90.35515 | 624 ft | 90 kts | 302° |
| 2026-05-08 01:02 | 38.74849 | -90.35966 | 619 ft | 29 kts | 302° |
| 2026-05-08 01:02 | 38.74884 | -90.36038 | 614 ft | 5 kts | 300° |
| 2026-05-08 01:02 | 38.74887 | -90.36090 | 625 ft | 6 kts | 251° |
| 2026-05-08 01:02 | 38.74849 | -90.36140 | 621 ft | 9 kts | 214° |
| 2026-05-08 01:03 | 38.74793 | -90.36178 | 616 ft | 9 kts | 189° |
| 2026-05-08 01:03 | 38.74742 | -90.36140 | 616 ft | 9 kts | 124° |
| 2026-05-08 01:03 | 38.74711 | -90.36074 | 628 ft | 9 kts | 121° |
| 2026-05-08 01:03 | 38.74680 | -90.36011 | 619 ft | 8 kts | 123° |
| 2026-05-08 01:04 | 38.74648 | -90.35950 | 622 ft | 8 kts | 123° |
| 2026-05-08 01:04 | 38.74619 | -90.35890 | 622 ft | 8 kts | 121° |
| 2026-05-08 01:04 | 38.74591 | -90.35832 | 616 ft | 8 kts | 122° |
| 2026-05-08 01:04 | 38.74564 | -90.35775 | 623 ft | 7 kts | 122° |
| 2026-05-08 01:05 | 38.74537 | -90.35722 | 627 ft | 7 kts | 122° |
| 2026-05-08 01:05 | 38.74511 | -90.35669 | 626 ft | 7 kts | 124° |
| 2026-05-08 01:05 | 38.74479 | -90.35607 | 618 ft | 11 kts | 121° |
| 2026-05-08 01:05 | 38.74431 | -90.35508 | 625 ft | 13 kts | 123° |
| 2026-05-08 01:06 | 38.74382 | -90.35409 | 616 ft | 13 kts | 122° |
| 2026-05-08 01:06 | 38.74335 | -90.35313 | 618 ft | 11 kts | 122° |
| 2026-05-08 01:06 | 38.74272 | -90.35272 | 624 ft | 11 kts | 199° |
| 2026-05-08 01:06 | 38.74205 | -90.35324 | 619 ft | 12 kts | 213° |
| 2026-05-08 01:07 | 38.74111 | -90.35398 | 618 ft | 17 kts | 213° |
| 2026-05-08 01:07 | 38.74007 | -90.35447 | 625 ft | 16 kts | 176° |
| 2026-05-08 01:07 | 38.73906 | -90.35449 | 622 ft | 14 kts | 203° |
| 2026-05-08 01:07 | 38.73856 | -90.35507 | 616 ft | 8 kts | 266° |
| 2026-05-08 01:08 | 38.73846 | -90.35565 | 625 ft | 2 kts | 225° |
| 2026-05-08 01:08 | 38.73833 | -90.35578 | 616 ft | 2 kts | 212° |
| 2026-05-08 01:08 | 38.73822 | -90.35586 | 616 ft | 1 kts | 209° |
| 2026-05-08 01:08 | 38.73817 | -90.35590 | 616 ft | 1 kts | 210° |
| 2026-05-08 01:09 | 38.73813 | -90.35592 | 616 ft | 0 kts | 210° |